sensor_id;sensor_type;location;lat;lon;timestamp;P1;durP1;ratioP1;P2;durP2;ratioP2
41259;SDS011;26993;48.958;9.330;2022-09-27T00:02:00;2.10;;;1.30;;
41259;SDS011;26993;48.958;9.330;2022-09-27T00:04:48;2.10;;;1.30;;
41259;SDS011;26993;48.958;9.330;2022-09-27T00:07:35;1.77;;;1.47;;
41259;SDS011;26993;48.958;9.330;2022-09-27T00:10:22;2.00;;;1.33;;
41259;SDS011;26993;48.958;9.330;2022-09-27T00:13:09;1.90;;;1.30;;
41259;SDS011;26993;48.958;9.330;2022-09-27T00:15:56;4.07;;;1.60;;
41259;SDS011;26993;48.958;9.330;2022-09-27T00:18:43;3.17;;;1.60;;
41259;SDS011;26993;48.958;9.330;2022-09-27T00:21:32;2.47;;;1.50;;
41259;SDS011;26993;48.958;9.330;2022-09-27T00:24:19;4.87;;;1.40;;
41259;SDS011;26993;48.958;9.330;2022-09-27T00:27:07;3.00;;;1.40;;
41259;SDS011;26993;48.958;9.330;2022-09-27T00:29:54;2.33;;;1.30;;
41259;SDS011;26993;48.958;9.330;2022-09-27T00:32:40;1.70;;;1.33;;
41259;SDS011;26993;48.958;9.330;2022-09-27T00:35:27;2.17;;;1.40;;
41259;SDS011;26993;48.958;9.330;2022-09-27T00:38:15;3.10;;;1.30;;
41259;SDS011;26993;48.958;9.330;2022-09-27T00:41:02;5.73;;;1.60;;
41259;SDS011;26993;48.958;9.330;2022-09-27T00:43:50;1.83;;;1.23;;
41259;SDS011;26993;48.958;9.330;2022-09-27T00:46:39;4.13;;;1.27;;
41259;SDS011;26993;48.958;9.330;2022-09-27T00:49:30;4.70;;;1.43;;
41259;SDS011;26993;48.958;9.330;2022-09-27T00:52:22;4.37;;;1.30;;
41259;SDS011;26993;48.958;9.330;2022-09-27T00:55:16;2.20;;;1.23;;
41259;SDS011;26993;48.958;9.330;2022-09-27T00:58:06;2.60;;;1.10;;
41259;SDS011;26993;48.958;9.330;2022-09-27T01:00:55;1.20;;;1.10;;
41259;SDS011;26993;48.958;9.330;2022-09-27T01:03:45;2.30;;;1.20;;
41259;SDS011;26993;48.958;9.330;2022-09-27T01:06:36;1.93;;;1.10;;
41259;SDS011;26993;48.958;9.330;2022-09-27T01:09:23;1.77;;;1.30;;
41259;SDS011;26993;48.958;9.330;2022-09-27T01:12:13;3.77;;;1.20;;
41259;SDS011;26993;48.958;9.330;2022-09-27T01:15:11;2.00;;;0.90;;
41259;SDS011;26993;48.958;9.330;2022-09-27T01:18:07;1.40;;;0.90;;
41259;SDS011;26993;48.958;9.330;2022-09-27T01:21:19;1.53;;;1.20;;
41259;SDS011;26993;48.958;9.330;2022-09-27T01:30:59;2.70;;;1.10;;
41259;SDS011;26993;48.958;9.330;2022-09-27T01:33:51;4.23;;;0.90;;
41259;SDS011;26993;48.958;9.330;2022-09-27T01:36:49;1.37;;;0.97;;
41259;SDS011;26993;48.958;9.330;2022-09-27T01:39:44;1.20;;;0.80;;
41259;SDS011;26993;48.958;9.330;2022-09-27T01:42:38;3.33;;;0.80;;
41259;SDS011;26993;48.958;9.330;2022-09-27T01:45:33;2.97;;;0.77;;
41259;SDS011;26993;48.958;9.330;2022-09-27T01:48:25;1.17;;;0.87;;
41259;SDS011;26993;48.958;9.330;2022-09-27T01:51:17;3.13;;;0.80;;
41259;SDS011;26993;48.958;9.330;2022-09-27T01:54:08;1.33;;;0.83;;
41259;SDS011;26993;48.958;9.330;2022-09-27T01:57:00;4.03;;;0.80;;
41259;SDS011;26993;48.958;9.330;2022-09-27T01:59:50;0.93;;;0.70;;
41259;SDS011;26993;48.958;9.330;2022-09-27T02:02:40;1.20;;;0.80;;
41259;SDS011;26993;48.958;9.330;2022-09-27T02:05:34;0.60;;;0.60;;
41259;SDS011;26993;48.958;9.330;2022-09-27T02:08:28;2.67;;;0.80;;
41259;SDS011;26993;48.958;9.330;2022-09-27T02:11:20;1.30;;;0.87;;
41259;SDS011;26993;48.958;9.330;2022-09-27T02:14:10;0.90;;;0.70;;
41259;SDS011;26993;48.958;9.330;2022-09-27T02:17:04;1.23;;;0.80;;
41259;SDS011;26993;48.958;9.330;2022-09-27T02:20:00;2.77;;;0.80;;
41259;SDS011;26993;48.958;9.330;2022-09-27T02:22:56;1.40;;;1.20;;
41259;SDS011;26993;48.958;9.330;2022-09-27T02:25:54;2.20;;;1.00;;
41259;SDS011;26993;48.958;9.330;2022-09-27T02:28:44;2.90;;;1.10;;
41259;SDS011;26993;48.958;9.330;2022-09-27T02:31:34;2.63;;;0.77;;
41259;SDS011;26993;48.958;9.330;2022-09-27T02:34:22;0.80;;;0.70;;
41259;SDS011;26993;48.958;9.330;2022-09-27T02:37:11;0.90;;;0.67;;
41259;SDS011;26993;48.958;9.330;2022-09-27T02:40:00;1.27;;;0.70;;
41259;SDS011;26993;48.958;9.330;2022-09-27T02:42:48;3.27;;;0.67;;
41259;SDS011;26993;48.958;9.330;2022-09-27T02:45:37;1.43;;;1.03;;
41259;SDS011;26993;48.958;9.330;2022-09-27T02:48:34;2.03;;;1.00;;
41259;SDS011;26993;48.958;9.330;2022-09-27T02:51:31;1.30;;;0.97;;
41259;SDS011;26993;48.958;9.330;2022-09-27T02:54:29;4.40;;;1.27;;
41259;SDS011;26993;48.958;9.330;2022-09-27T02:57:29;3.10;;;1.00;;
41259;SDS011;26993;48.958;9.330;2022-09-27T03:00:23;3.00;;;1.10;;
41259;SDS011;26993;48.958;9.330;2022-09-27T03:03:16;4.63;;;1.10;;
41259;SDS011;26993;48.958;9.330;2022-09-27T03:06:08;2.60;;;1.00;;
41259;SDS011;26993;48.958;9.330;2022-09-27T03:08:57;4.97;;;1.20;;
41259;SDS011;26993;48.958;9.330;2022-09-27T03:11:43;5.60;;;1.70;;
41259;SDS011;26993;48.958;9.330;2022-09-27T03:14:32;6.30;;;1.50;;
41259;SDS011;26993;48.958;9.330;2022-09-27T03:17:18;7.33;;;1.60;;
41259;SDS011;26993;48.958;9.330;2022-09-27T03:20:05;7.23;;;2.07;;
41259;SDS011;26993;48.958;9.330;2022-09-27T03:22:53;5.20;;;1.37;;
41259;SDS011;26993;48.958;9.330;2022-09-27T03:25:40;3.47;;;1.40;;
41259;SDS011;26993;48.958;9.330;2022-09-27T03:28:27;4.03;;;1.17;;
41259;SDS011;26993;48.958;9.330;2022-09-27T03:31:16;4.00;;;1.10;;
41259;SDS011;26993;48.958;9.330;2022-09-27T03:34:03;7.50;;;3.20;;
41259;SDS011;26993;48.958;9.330;2022-09-27T03:36:49;5.90;;;1.67;;
41259;SDS011;26993;48.958;9.330;2022-09-27T03:39:36;4.50;;;1.50;;
41259;SDS011;26993;48.958;9.330;2022-09-27T03:42:24;7.57;;;1.60;;
41259;SDS011;26993;48.958;9.330;2022-09-27T03:45:11;3.07;;;1.43;;
41259;SDS011;26993;48.958;9.330;2022-09-27T03:48:00;6.43;;;2.00;;
41259;SDS011;26993;48.958;9.330;2022-09-27T03:50:47;4.13;;;1.77;;
41259;SDS011;26993;48.958;9.330;2022-09-27T03:53:36;6.80;;;1.80;;
41259;SDS011;26993;48.958;9.330;2022-09-27T03:56:23;6.07;;;1.80;;
41259;SDS011;26993;48.958;9.330;2022-09-27T03:59:10;6.43;;;2.10;;
41259;SDS011;26993;48.958;9.330;2022-09-27T04:01:57;6.33;;;1.90;;
41259;SDS011;26993;48.958;9.330;2022-09-27T04:04:45;5.60;;;2.07;;
41259;SDS011;26993;48.958;9.330;2022-09-27T04:07:32;4.87;;;2.30;;
41259;SDS011;26993;48.958;9.330;2022-09-27T04:10:18;6.17;;;2.50;;
41259;SDS011;26993;48.958;9.330;2022-09-27T04:13:05;9.00;;;2.63;;
41259;SDS011;26993;48.958;9.330;2022-09-27T04:15:52;7.83;;;2.33;;
41259;SDS011;26993;48.958;9.330;2022-09-27T04:18:39;6.60;;;2.27;;
41259;SDS011;26993;48.958;9.330;2022-09-27T04:21:27;6.73;;;2.57;;
41259;SDS011;26993;48.958;9.330;2022-09-27T04:24:14;9.40;;;2.43;;
41259;SDS011;26993;48.958;9.330;2022-09-27T04:27:01;10.37;;;2.50;;
41259;SDS011;26993;48.958;9.330;2022-09-27T04:29:47;8.73;;;2.13;;
41259;SDS011;26993;48.958;9.330;2022-09-27T04:32:34;4.20;;;2.17;;
41259;SDS011;26993;48.958;9.330;2022-09-27T04:35:26;6.63;;;2.63;;
41259;SDS011;26993;48.958;9.330;2022-09-27T04:38:31;6.03;;;2.07;;
41259;SDS011;26993;48.958;9.330;2022-09-27T04:41:18;8.53;;;2.83;;
41259;SDS011;26993;48.958;9.330;2022-09-27T04:44:07;9.97;;;2.20;;
41259;SDS011;26993;48.958;9.330;2022-09-27T04:46:55;11.00;;;2.33;;
41259;SDS011;26993;48.958;9.330;2022-09-27T04:49:41;13.10;;;2.60;;
41259;SDS011;26993;48.958;9.330;2022-09-27T04:52:28;10.73;;;2.47;;
41259;SDS011;26993;48.958;9.330;2022-09-27T04:55:17;7.87;;;2.83;;
41259;SDS011;26993;48.958;9.330;2022-09-27T04:58:04;10.83;;;2.40;;
41259;SDS011;26993;48.958;9.330;2022-09-27T05:00:51;10.37;;;3.37;;
41259;SDS011;26993;48.958;9.330;2022-09-27T05:03:39;11.33;;;2.80;;
41259;SDS011;26993;48.958;9.330;2022-09-27T05:06:26;7.47;;;2.67;;
41259;SDS011;26993;48.958;9.330;2022-09-27T05:09:13;10.00;;;2.20;;
41259;SDS011;26993;48.958;9.330;2022-09-27T05:12:01;9.83;;;2.97;;
41259;SDS011;26993;48.958;9.330;2022-09-27T05:14:51;9.10;;;2.67;;
41259;SDS011;26993;48.958;9.330;2022-09-27T05:17:38;9.67;;;2.13;;
41259;SDS011;26993;48.958;9.330;2022-09-27T05:20:25;6.57;;;2.53;;
41259;SDS011;26993;48.958;9.330;2022-09-27T05:23:13;7.13;;;2.10;;
41259;SDS011;26993;48.958;9.330;2022-09-27T05:26:02;9.40;;;2.60;;
41259;SDS011;26993;48.958;9.330;2022-09-27T05:28:50;5.37;;;2.37;;
41259;SDS011;26993;48.958;9.330;2022-09-27T05:31:37;9.30;;;2.43;;
41259;SDS011;26993;48.958;9.330;2022-09-27T05:34:24;5.20;;;1.90;;
41259;SDS011;26993;48.958;9.330;2022-09-27T05:37:11;8.93;;;2.40;;
41259;SDS011;26993;48.958;9.330;2022-09-27T05:39:58;5.30;;;2.17;;
41259;SDS011;26993;48.958;9.330;2022-09-27T05:42:45;8.10;;;2.87;;
41259;SDS011;26993;48.958;9.330;2022-09-27T05:45:33;6.37;;;1.93;;
41259;SDS011;26993;48.958;9.330;2022-09-27T05:48:20;4.93;;;1.93;;
41259;SDS011;26993;48.958;9.330;2022-09-27T05:51:07;7.20;;;1.63;;
41259;SDS011;26993;48.958;9.330;2022-09-27T05:53:54;7.27;;;1.60;;
41259;SDS011;26993;48.958;9.330;2022-09-27T05:56:41;4.30;;;1.40;;
41259;SDS011;26993;48.958;9.330;2022-09-27T05:59:28;2.53;;;1.23;;
41259;SDS011;26993;48.958;9.330;2022-09-27T06:02:16;3.83;;;1.10;;
41259;SDS011;26993;48.958;9.330;2022-09-27T06:05:03;3.83;;;1.43;;
41259;SDS011;26993;48.958;9.330;2022-09-27T06:07:51;7.40;;;1.60;;
41259;SDS011;26993;48.958;9.330;2022-09-27T06:10:42;4.00;;;1.40;;
41259;SDS011;26993;48.958;9.330;2022-09-27T06:13:30;3.77;;;1.40;;
41259;SDS011;26993;48.958;9.330;2022-09-27T06:16:17;5.90;;;1.57;;
41259;SDS011;26993;48.958;9.330;2022-09-27T06:19:05;2.67;;;1.40;;
41259;SDS011;26993;48.958;9.330;2022-09-27T06:21:52;3.47;;;1.40;;
41259;SDS011;26993;48.958;9.330;2022-09-27T06:24:39;2.20;;;1.40;;
41259;SDS011;26993;48.958;9.330;2022-09-27T06:27:26;7.00;;;1.70;;
41259;SDS011;26993;48.958;9.330;2022-09-27T06:30:13;7.70;;;4.77;;
41259;SDS011;26993;48.958;9.330;2022-09-27T06:33:00;6.23;;;1.90;;
41259;SDS011;26993;48.958;9.330;2022-09-27T06:35:49;6.67;;;1.50;;
41259;SDS011;26993;48.958;9.330;2022-09-27T06:38:36;4.57;;;1.63;;
41259;SDS011;26993;48.958;9.330;2022-09-27T06:41:23;4.63;;;1.53;;
41259;SDS011;26993;48.958;9.330;2022-09-27T06:44:10;3.40;;;1.80;;
41259;SDS011;26993;48.958;9.330;2022-09-27T06:46:57;3.63;;;2.00;;
41259;SDS011;26993;48.958;9.330;2022-09-27T06:49:44;4.63;;;1.70;;
41259;SDS011;26993;48.958;9.330;2022-09-27T06:52:32;3.70;;;1.60;;
41259;SDS011;26993;48.958;9.330;2022-09-27T06:55:21;3.43;;;2.00;;
41259;SDS011;26993;48.958;9.330;2022-09-27T06:58:08;5.97;;;1.83;;
41259;SDS011;26993;48.958;9.330;2022-09-27T07:01:14;7.23;;;1.77;;
41259;SDS011;26993;48.958;9.330;2022-09-27T07:04:01;5.33;;;1.53;;
41259;SDS011;26993;48.958;9.330;2022-09-27T07:06:48;4.13;;;1.43;;
41259;SDS011;26993;48.958;9.330;2022-09-27T07:09:36;5.83;;;1.23;;
41259;SDS011;26993;48.958;9.330;2022-09-27T07:12:24;4.67;;;1.37;;
41259;SDS011;26993;48.958;9.330;2022-09-27T07:15:11;5.43;;;1.37;;
41259;SDS011;26993;48.958;9.330;2022-09-27T07:17:58;3.33;;;1.07;;
41259;SDS011;26993;48.958;9.330;2022-09-27T07:20:45;3.93;;;1.97;;
41259;SDS011;26993;48.958;9.330;2022-09-27T07:23:32;6.07;;;2.40;;
41259;SDS011;26993;48.958;9.330;2022-09-27T07:26:20;2.10;;;1.20;;
41259;SDS011;26993;48.958;9.330;2022-09-27T07:29:06;3.93;;;1.00;;
41259;SDS011;26993;48.958;9.330;2022-09-27T07:31:53;5.90;;;1.10;;
41259;SDS011;26993;48.958;9.330;2022-09-27T07:34:40;2.80;;;1.13;;
41259;SDS011;26993;48.958;9.330;2022-09-27T07:37:29;2.43;;;1.00;;
41259;SDS011;26993;48.958;9.330;2022-09-27T07:40:17;2.30;;;0.80;;
41259;SDS011;26993;48.958;9.330;2022-09-27T07:43:05;1.37;;;0.80;;
41259;SDS011;26993;48.958;9.330;2022-09-27T07:45:54;2.03;;;0.90;;
41259;SDS011;26993;48.958;9.330;2022-09-27T07:48:41;6.30;;;0.80;;
41259;SDS011;26993;48.958;9.330;2022-09-27T07:51:29;1.63;;;0.83;;
41259;SDS011;26993;48.958;9.330;2022-09-27T07:54:16;3.33;;;0.93;;
41259;SDS011;26993;48.958;9.330;2022-09-27T07:57:03;3.60;;;0.97;;
41259;SDS011;26993;48.958;9.330;2022-09-27T07:59:51;3.10;;;1.03;;
41259;SDS011;26993;48.958;9.330;2022-09-27T08:02:38;3.60;;;1.20;;
41259;SDS011;26993;48.958;9.330;2022-09-27T08:05:25;2.13;;;1.13;;
41259;SDS011;26993;48.958;9.330;2022-09-27T08:08:12;2.30;;;1.07;;
41259;SDS011;26993;48.958;9.330;2022-09-27T08:10:59;2.23;;;1.30;;
41259;SDS011;26993;48.958;9.330;2022-09-27T08:13:45;5.37;;;1.50;;
41259;SDS011;26993;48.958;9.330;2022-09-27T08:16:37;8.13;;;4.77;;
41259;SDS011;26993;48.958;9.330;2022-09-27T08:19:24;3.60;;;1.40;;
41259;SDS011;26993;48.958;9.330;2022-09-27T08:22:11;4.97;;;1.30;;
41259;SDS011;26993;48.958;9.330;2022-09-27T08:24:59;3.47;;;1.23;;
41259;SDS011;26993;48.958;9.330;2022-09-27T08:27:53;5.63;;;1.80;;
41259;SDS011;26993;48.958;9.330;2022-09-27T08:30:40;2.13;;;1.30;;
41259;SDS011;26993;48.958;9.330;2022-09-27T08:33:28;1.87;;;1.20;;
41259;SDS011;26993;48.958;9.330;2022-09-27T08:36:15;2.30;;;1.30;;
41259;SDS011;26993;48.958;9.330;2022-09-27T08:39:03;4.30;;;1.37;;
41259;SDS011;26993;48.958;9.330;2022-09-27T08:41:51;8.63;;;1.60;;
41259;SDS011;26993;48.958;9.330;2022-09-27T08:44:45;3.33;;;1.20;;
41259;SDS011;26993;48.958;9.330;2022-09-27T08:47:36;3.50;;;1.30;;
41259;SDS011;26993;48.958;9.330;2022-09-27T08:50:27;6.97;;;1.50;;
41259;SDS011;26993;48.958;9.330;2022-09-27T08:53:19;2.87;;;1.30;;
41259;SDS011;26993;48.958;9.330;2022-09-27T08:56:11;5.50;;;1.50;;
41259;SDS011;26993;48.958;9.330;2022-09-27T08:59:00;4.47;;;1.50;;
41259;SDS011;26993;48.958;9.330;2022-09-27T09:01:57;3.50;;;1.30;;
41259;SDS011;26993;48.958;9.330;2022-09-27T09:04:44;1.90;;;1.30;;
41259;SDS011;26993;48.958;9.330;2022-09-27T09:10:48;1.90;;;1.10;;
41259;SDS011;26993;48.958;9.330;2022-09-27T09:14:06;2.03;;;1.27;;
41259;SDS011;26993;48.958;9.330;2022-09-27T09:17:07;6.03;;;1.30;;
41259;SDS011;26993;48.958;9.330;2022-09-27T09:20:10;2.93;;;1.70;;
41259;SDS011;26993;48.958;9.330;2022-09-27T09:23:15;2.93;;;1.60;;
41259;SDS011;26993;48.958;9.330;2022-09-27T09:26:28;1.77;;;1.30;;
41259;SDS011;26993;48.958;9.330;2022-09-27T09:29:23;4.10;;;1.67;;
41259;SDS011;26993;48.958;9.330;2022-09-27T09:32:26;3.40;;;1.40;;
41259;SDS011;26993;48.958;9.330;2022-09-27T09:35:23;2.77;;;1.63;;
41259;SDS011;26993;48.958;9.330;2022-09-27T09:38:14;5.20;;;1.70;;
41259;SDS011;26993;48.958;9.330;2022-09-27T09:41:07;4.40;;;1.60;;
41259;SDS011;26993;48.958;9.330;2022-09-27T09:44:03;3.63;;;1.90;;
41259;SDS011;26993;48.958;9.330;2022-09-27T09:46:56;4.60;;;1.80;;
41259;SDS011;26993;48.958;9.330;2022-09-27T09:49:46;4.50;;;2.10;;
41259;SDS011;26993;48.958;9.330;2022-09-27T09:52:38;4.43;;;2.13;;
41259;SDS011;26993;48.958;9.330;2022-09-27T09:55:32;5.33;;;1.90;;
41259;SDS011;26993;48.958;9.330;2022-09-27T09:58:22;3.70;;;1.57;;
41259;SDS011;26993;48.958;9.330;2022-09-27T10:01:13;6.47;;;1.80;;
41259;SDS011;26993;48.958;9.330;2022-09-27T10:04:04;3.03;;;1.60;;
41259;SDS011;26993;48.958;9.330;2022-09-27T10:06:51;2.00;;;1.37;;
41259;SDS011;26993;48.958;9.330;2022-09-27T10:09:39;3.27;;;1.53;;
41259;SDS011;26993;48.958;9.330;2022-09-27T10:12:27;8.20;;;1.57;;
41259;SDS011;26993;48.958;9.330;2022-09-27T10:15:15;5.47;;;1.80;;
41259;SDS011;26993;48.958;9.330;2022-09-27T10:18:04;5.40;;;1.47;;
41259;SDS011;26993;48.958;9.330;2022-09-27T10:20:54;3.70;;;1.50;;
41259;SDS011;26993;48.958;9.330;2022-09-27T10:26:48;5.17;;;2.30;;
41259;SDS011;26993;48.958;9.330;2022-09-27T10:29:37;5.63;;;2.40;;
41259;SDS011;26993;48.958;9.330;2022-09-27T10:32:25;8.03;;;2.27;;
41259;SDS011;26993;48.958;9.330;2022-09-27T10:35:21;4.23;;;1.90;;
41259;SDS011;26993;48.958;9.330;2022-09-27T10:38:23;6.37;;;2.33;;
41259;SDS011;26993;48.958;9.330;2022-09-27T10:41:16;4.17;;;1.97;;
41259;SDS011;26993;48.958;9.330;2022-09-27T10:44:19;4.37;;;1.50;;
41259;SDS011;26993;48.958;9.330;2022-09-27T10:47:12;4.33;;;1.87;;
41259;SDS011;26993;48.958;9.330;2022-09-27T10:50:10;8.13;;;1.63;;
41259;SDS011;26993;48.958;9.330;2022-09-27T10:53:03;4.00;;;1.37;;
41259;SDS011;26993;48.958;9.330;2022-09-27T10:55:57;9.43;;;1.80;;
41259;SDS011;26993;48.958;9.330;2022-09-27T10:58:44;8.33;;;2.47;;
41259;SDS011;26993;48.958;9.330;2022-09-27T11:01:37;5.73;;;1.90;;
41259;SDS011;26993;48.958;9.330;2022-09-27T11:04:28;3.17;;;1.50;;
41259;SDS011;26993;48.958;9.330;2022-09-27T11:07:18;5.00;;;1.40;;
41259;SDS011;26993;48.958;9.330;2022-09-27T11:10:18;4.80;;;1.67;;
41259;SDS011;26993;48.958;9.330;2022-09-27T11:13:12;4.90;;;1.70;;
41259;SDS011;26993;48.958;9.330;2022-09-27T11:16:07;3.77;;;1.50;;
41259;SDS011;26993;48.958;9.330;2022-09-27T11:19:09;5.50;;;2.03;;
41259;SDS011;26993;48.958;9.330;2022-09-27T11:22:11;5.57;;;1.40;;
41259;SDS011;26993;48.958;9.330;2022-09-27T11:25:11;6.63;;;2.83;;
41259;SDS011;26993;48.958;9.330;2022-09-27T11:28:05;8.40;;;2.83;;
41259;SDS011;26993;48.958;9.330;2022-09-27T11:31:07;7.73;;;3.93;;
41259;SDS011;26993;48.958;9.330;2022-09-27T11:34:14;7.50;;;3.67;;
41259;SDS011;26993;48.958;9.330;2022-09-27T11:37:17;6.90;;;2.70;;
41259;SDS011;26993;48.958;9.330;2022-09-27T11:40:14;8.50;;;2.97;;
41259;SDS011;26993;48.958;9.330;2022-09-27T11:43:17;6.20;;;2.43;;
41259;SDS011;26993;48.958;9.330;2022-09-27T11:46:13;6.00;;;2.47;;
41259;SDS011;26993;48.958;9.330;2022-09-27T11:49:15;5.63;;;2.47;;
41259;SDS011;26993;48.958;9.330;2022-09-27T11:52:24;7.70;;;2.23;;
41259;SDS011;26993;48.958;9.330;2022-09-27T11:55:24;5.47;;;2.33;;
41259;SDS011;26993;48.958;9.330;2022-09-27T11:58:21;5.13;;;2.30;;
41259;SDS011;26993;48.958;9.330;2022-09-27T12:01:18;3.27;;;1.33;;
41259;SDS011;26993;48.958;9.330;2022-09-27T12:04:25;3.00;;;0.97;;
41259;SDS011;26993;48.958;9.330;2022-09-27T12:07:29;2.50;;;1.13;;
41259;SDS011;26993;48.958;9.330;2022-09-27T12:10:23;2.37;;;1.30;;
41259;SDS011;26993;48.958;9.330;2022-09-27T12:13:11;2.83;;;1.03;;
41259;SDS011;26993;48.958;9.330;2022-09-27T12:16:00;3.43;;;1.17;;
41259;SDS011;26993;48.958;9.330;2022-09-27T12:18:49;5.23;;;3.17;;
41259;SDS011;26993;48.958;9.330;2022-09-27T12:21:37;3.60;;;1.57;;
41259;SDS011;26993;48.958;9.330;2022-09-27T12:24:26;2.40;;;1.60;;
41259;SDS011;26993;48.958;9.330;2022-09-27T12:27:15;4.07;;;2.07;;
41259;SDS011;26993;48.958;9.330;2022-09-27T12:30:05;2.27;;;1.43;;
41259;SDS011;26993;48.958;9.330;2022-09-27T12:33:00;2.97;;;0.97;;
41259;SDS011;26993;48.958;9.330;2022-09-27T12:35:53;1.10;;;1.00;;
41259;SDS011;26993;48.958;9.330;2022-09-27T12:38:46;2.93;;;1.30;;
41259;SDS011;26993;48.958;9.330;2022-09-27T12:41:43;2.90;;;1.30;;
41259;SDS011;26993;48.958;9.330;2022-09-27T12:44:35;2.30;;;1.10;;
41259;SDS011;26993;48.958;9.330;2022-09-27T12:47:28;2.20;;;1.30;;
41259;SDS011;26993;48.958;9.330;2022-09-27T12:50:27;1.40;;;1.13;;
41259;SDS011;26993;48.958;9.330;2022-09-27T12:53:20;1.40;;;0.80;;
41259;SDS011;26993;48.958;9.330;2022-09-27T12:56:22;1.63;;;0.90;;
41259;SDS011;26993;48.958;9.330;2022-09-27T12:59:26;4.40;;;0.97;;
41259;SDS011;26993;48.958;9.330;2022-09-27T13:06:13;1.70;;;1.10;;
41259;SDS011;26993;48.958;9.330;2022-09-27T13:12:29;4.23;;;1.60;;
41259;SDS011;26993;48.958;9.330;2022-09-27T13:15:21;2.43;;;1.00;;
41259;SDS011;26993;48.958;9.330;2022-09-27T13:18:27;3.70;;;1.17;;
41259;SDS011;26993;48.958;9.330;2022-09-27T13:24:42;1.00;;;0.80;;
41259;SDS011;26993;48.958;9.330;2022-09-27T13:27:38;1.97;;;1.00;;
41259;SDS011;26993;48.958;9.330;2022-09-27T13:33:41;2.10;;;0.90;;
41259;SDS011;26993;48.958;9.330;2022-09-27T13:36:31;1.97;;;0.80;;
41259;SDS011;26993;48.958;9.330;2022-09-27T13:39:18;2.47;;;0.80;;
41259;SDS011;26993;48.958;9.330;2022-09-27T13:42:09;2.67;;;1.00;;
41259;SDS011;26993;48.958;9.330;2022-09-27T13:45:13;1.70;;;1.00;;
41259;SDS011;26993;48.958;9.330;2022-09-27T13:48:08;3.50;;;1.10;;
41259;SDS011;26993;48.958;9.330;2022-09-27T13:51:01;3.83;;;1.20;;
41259;SDS011;26993;48.958;9.330;2022-09-27T13:53:57;5.57;;;1.20;;
41259;SDS011;26993;48.958;9.330;2022-09-27T13:56:49;2.10;;;1.20;;
41259;SDS011;26993;48.958;9.330;2022-09-27T13:59:38;1.40;;;0.93;;
41259;SDS011;26993;48.958;9.330;2022-09-27T14:02:31;2.50;;;1.10;;
41259;SDS011;26993;48.958;9.330;2022-09-27T14:05:26;1.50;;;1.20;;
41259;SDS011;26993;48.958;9.330;2022-09-27T14:08:19;2.00;;;1.10;;
41259;SDS011;26993;48.958;9.330;2022-09-27T14:11:12;9.70;;;5.27;;
41259;SDS011;26993;48.958;9.330;2022-09-27T14:14:03;2.60;;;1.53;;
41259;SDS011;26993;48.958;9.330;2022-09-27T14:16:52;5.73;;;1.20;;
41259;SDS011;26993;48.958;9.330;2022-09-27T14:19:40;1.90;;;1.20;;
41259;SDS011;26993;48.958;9.330;2022-09-27T14:22:29;2.63;;;1.30;;
41259;SDS011;26993;48.958;9.330;2022-09-27T14:25:18;2.87;;;1.13;;
41259;SDS011;26993;48.958;9.330;2022-09-27T14:28:17;4.17;;;1.10;;
41259;SDS011;26993;48.958;9.330;2022-09-27T14:31:05;3.73;;;1.30;;
41259;SDS011;26993;48.958;9.330;2022-09-27T14:34:03;3.03;;;1.57;;
41259;SDS011;26993;48.958;9.330;2022-09-27T14:36:52;4.90;;;1.60;;
41259;SDS011;26993;48.958;9.330;2022-09-27T14:39:58;1.60;;;1.03;;
41259;SDS011;26993;48.958;9.330;2022-09-27T14:42:51;2.53;;;1.00;;
41259;SDS011;26993;48.958;9.330;2022-09-27T14:45:41;3.50;;;1.40;;
41259;SDS011;26993;48.958;9.330;2022-09-27T14:48:28;1.90;;;1.30;;
41259;SDS011;26993;48.958;9.330;2022-09-27T14:51:17;3.27;;;1.30;;
41259;SDS011;26993;48.958;9.330;2022-09-27T14:54:17;1.67;;;1.00;;
41259;SDS011;26993;48.958;9.330;2022-09-27T14:57:07;2.37;;;1.20;;
41259;SDS011;26993;48.958;9.330;2022-09-27T14:59:55;3.97;;;1.77;;
41259;SDS011;26993;48.958;9.330;2022-09-27T15:02:43;5.43;;;1.93;;
41259;SDS011;26993;48.958;9.330;2022-09-27T15:05:30;2.43;;;1.20;;
41259;SDS011;26993;48.958;9.330;2022-09-27T15:08:18;2.87;;;1.33;;
41259;SDS011;26993;48.958;9.330;2022-09-27T15:11:08;2.43;;;1.20;;
41259;SDS011;26993;48.958;9.330;2022-09-27T15:13:56;1.97;;;1.10;;
41259;SDS011;26993;48.958;9.330;2022-09-27T15:16:44;1.83;;;1.00;;
41259;SDS011;26993;48.958;9.330;2022-09-27T15:19:32;2.63;;;1.27;;
41259;SDS011;26993;48.958;9.330;2022-09-27T15:22:28;3.00;;;1.20;;
41259;SDS011;26993;48.958;9.330;2022-09-27T15:25:24;1.67;;;1.00;;
41259;SDS011;26993;48.958;9.330;2022-09-27T15:28:17;2.00;;;1.10;;
41259;SDS011;26993;48.958;9.330;2022-09-27T15:31:06;1.27;;;0.97;;
41259;SDS011;26993;48.958;9.330;2022-09-27T15:33:53;2.63;;;1.10;;
41259;SDS011;26993;48.958;9.330;2022-09-27T15:36:48;1.80;;;1.20;;
41259;SDS011;26993;48.958;9.330;2022-09-27T15:39:38;1.40;;;0.90;;
41259;SDS011;26993;48.958;9.330;2022-09-27T15:42:25;4.17;;;1.70;;
41259;SDS011;26993;48.958;9.330;2022-09-27T15:45:25;3.60;;;1.70;;
41259;SDS011;26993;48.958;9.330;2022-09-27T15:48:16;1.83;;;1.33;;
41259;SDS011;26993;48.958;9.330;2022-09-27T15:51:06;1.80;;;1.20;;
41259;SDS011;26993;48.958;9.330;2022-09-27T15:54:26;1.67;;;1.30;;
41259;SDS011;26993;48.958;9.330;2022-09-27T15:57:14;3.40;;;1.17;;
41259;SDS011;26993;48.958;9.330;2022-09-27T16:00:01;4.47;;;1.40;;
41259;SDS011;26993;48.958;9.330;2022-09-27T16:02:49;1.60;;;1.00;;
41259;SDS011;26993;48.958;9.330;2022-09-27T16:05:37;2.20;;;1.07;;
41259;SDS011;26993;48.958;9.330;2022-09-27T16:08:24;1.67;;;1.10;;
41259;SDS011;26993;48.958;9.330;2022-09-27T16:11:13;1.70;;;1.00;;
41259;SDS011;26993;48.958;9.330;2022-09-27T16:14:01;3.70;;;1.60;;
41259;SDS011;26993;48.958;9.330;2022-09-27T16:16:48;3.23;;;2.00;;
41259;SDS011;26993;48.958;9.330;2022-09-27T16:19:36;2.40;;;1.33;;
41259;SDS011;26993;48.958;9.330;2022-09-27T16:22:24;2.67;;;1.20;;
41259;SDS011;26993;48.958;9.330;2022-09-27T16:25:11;2.37;;;1.13;;
41259;SDS011;26993;48.958;9.330;2022-09-27T16:27:58;4.37;;;1.30;;
41259;SDS011;26993;48.958;9.330;2022-09-27T16:30:45;1.60;;;1.00;;
41259;SDS011;26993;48.958;9.330;2022-09-27T16:33:32;3.13;;;1.20;;
41259;SDS011;26993;48.958;9.330;2022-09-27T16:36:20;1.93;;;1.00;;
41259;SDS011;26993;48.958;9.330;2022-09-27T16:39:10;3.40;;;1.40;;
41259;SDS011;26993;48.958;9.330;2022-09-27T16:41:58;4.00;;;1.00;;
41259;SDS011;26993;48.958;9.330;2022-09-27T16:44:49;2.73;;;1.20;;
41259;SDS011;26993;48.958;9.330;2022-09-27T16:47:36;2.17;;;1.00;;
41259;SDS011;26993;48.958;9.330;2022-09-27T16:50:23;9.03;;;1.20;;
41259;SDS011;26993;48.958;9.330;2022-09-27T16:53:27;4.00;;;1.60;;
41259;SDS011;26993;48.958;9.330;2022-09-27T16:56:16;2.27;;;1.30;;
41259;SDS011;26993;48.958;9.330;2022-09-27T16:59:04;3.57;;;1.20;;
41259;SDS011;26993;48.958;9.330;2022-09-27T17:01:51;4.23;;;1.40;;
41259;SDS011;26993;48.958;9.330;2022-09-27T17:04:41;3.50;;;1.27;;
41259;SDS011;26993;48.958;9.330;2022-09-27T17:07:28;10.73;;;6.20;;
41259;SDS011;26993;48.958;9.330;2022-09-27T17:10:14;4.57;;;2.23;;
41259;SDS011;26993;48.958;9.330;2022-09-27T17:13:03;2.97;;;1.50;;
41259;SDS011;26993;48.958;9.330;2022-09-27T17:15:50;1.93;;;1.10;;
41259;SDS011;26993;48.958;9.330;2022-09-27T17:18:37;2.67;;;1.30;;
41259;SDS011;26993;48.958;9.330;2022-09-27T17:21:25;2.70;;;1.20;;
41259;SDS011;26993;48.958;9.330;2022-09-27T17:24:11;2.53;;;1.43;;
41259;SDS011;26993;48.958;9.330;2022-09-27T17:26:58;3.03;;;1.23;;
41259;SDS011;26993;48.958;9.330;2022-09-27T17:29:46;2.90;;;1.40;;
41259;SDS011;26993;48.958;9.330;2022-09-27T17:32:33;5.80;;;1.17;;
41259;SDS011;26993;48.958;9.330;2022-09-27T17:35:22;2.53;;;1.17;;
41259;SDS011;26993;48.958;9.330;2022-09-27T17:38:09;4.60;;;1.40;;